sensor_id;sensor_type;location;lat;lon;timestamp;pressure;altitude;pressure_sealevel;temperature;humidity
3102;BME280;1561;42.666;23.392;2023-03-04T00:00:28;95243.72;;;6.31;100.00
3102;BME280;1561;42.666;23.392;2023-03-04T00:02:56;95236.00;;;6.32;100.00
3102;BME280;1561;42.666;23.392;2023-03-04T00:08:39;95236.72;;;6.34;100.00
3102;BME280;1561;42.666;23.392;2023-03-04T00:11:20;95241.34;;;6.28;100.00
3102;BME280;1561;42.666;23.392;2023-03-04T00:13:48;95226.53;;;6.22;100.00
3102;BME280;1561;42.666;23.392;2023-03-04T00:16:16;95230.53;;;6.38;100.00
3102;BME280;1561;42.666;23.392;2023-03-04T00:18:44;95227.81;;;6.41;100.00
3102;BME280;1561;42.666;23.392;2023-03-04T00:24:37;95222.31;;;6.35;100.00
3102;BME280;1561;42.666;23.392;2023-03-04T00:27:04;95016.97;;;5.18;100.00
3102;BME280;1561;42.666;23.392;2023-03-04T00:32:44;95222.09;;;6.25;100.00
3102;BME280;1561;42.666;23.392;2023-03-04T00:45:20;95216.16;;;6.12;100.00
3102;BME280;1561;42.666;23.392;2023-03-04T00:47:57;95123.38;;;5.57;100.00
3102;BME280;1561;42.666;23.392;2023-03-04T00:50:24;95221.06;;;6.28;100.00
3102;BME280;1561;42.666;23.392;2023-03-04T01:03:05;95210.75;;;6.31;100.00
3102;BME280;1561;42.666;23.392;2023-03-04T01:05:36;95209.41;;;6.38;100.00
3102;BME280;1561;42.666;23.392;2023-03-04T01:18:51;95205.91;;;6.40;100.00
3102;BME280;1561;42.666;23.392;2023-03-04T01:21:21;95197.13;;;6.32;100.00
3102;BME280;1561;42.666;23.392;2023-03-04T01:37:15;95185.34;;;6.18;100.00
3102;BME280;1561;42.666;23.392;2023-03-04T01:39:50;95188.56;;;6.08;100.00
3102;BME280;1561;42.666;23.392;2023-03-04T01:42:20;95181.47;;;6.13;100.00
3102;BME280;1561;42.666;23.392;2023-03-04T01:44:52;95178.81;;;6.02;100.00
3102;BME280;1561;42.666;23.392;2023-03-04T01:47:21;95169.56;;;5.88;100.00
3102;BME280;1561;42.666;23.392;2023-03-04T01:50:21;95174.03;;;5.97;100.00
3102;BME280;1561;42.666;23.392;2023-03-04T01:53:02;95056.22;;;5.25;100.00
3102;BME280;1561;42.666;23.392;2023-03-04T01:55:56;95183.13;;;5.87;100.00
3102;BME280;1561;42.666;23.392;2023-03-04T01:58:28;95179.50;;;5.77;100.00
3102;BME280;1561;42.666;23.392;2023-03-04T02:11:03;95170.69;;;5.97;100.00
3102;BME280;1561;42.666;23.392;2023-03-04T02:13:32;95166.94;;;5.90;100.00
3102;BME280;1561;42.666;23.392;2023-03-04T02:16:01;95163.56;;;5.89;100.00
3102;BME280;1561;42.666;23.392;2023-03-04T02:18:28;95166.72;;;5.93;100.00
3102;BME280;1561;42.666;23.392;2023-03-04T02:21:04;95163.81;;;5.99;100.00
3102;BME280;1561;42.666;23.392;2023-03-04T02:27:21;95161.81;;;6.16;100.00
3102;BME280;1561;42.666;23.392;2023-03-04T02:33:16;95101.94;;;5.75;100.00
3102;BME280;1561;42.666;23.392;2023-03-04T02:36:22;95153.69;;;6.11;100.00
3102;BME280;1561;42.666;23.392;2023-03-04T02:39:01;95146.75;;;6.01;100.00
3102;BME280;1561;42.666;23.392;2023-03-04T02:41:53;95152.75;;;6.00;100.00
3102;BME280;1561;42.666;23.392;2023-03-04T02:47:43;95150.72;;;5.78;100.00
3102;BME280;1561;42.666;23.392;2023-03-04T02:53:32;95153.66;;;5.72;100.00
3102;BME280;1561;42.666;23.392;2023-03-04T02:56:01;95139.53;;;5.68;100.00
3102;BME280;1561;42.666;23.392;2023-03-04T02:58:28;95150.41;;;5.70;100.00
3102;BME280;1561;42.666;23.392;2023-03-04T03:01:02;95145.63;;;5.66;100.00
3102;BME280;1561;42.666;23.392;2023-03-04T03:10:28;95157.78;;;5.73;100.00
3102;BME280;1561;42.666;23.392;2023-03-04T03:13:09;95148.75;;;5.69;100.00
3102;BME280;1561;42.666;23.392;2023-03-04T03:15:37;95156.78;;;5.76;100.00
3102;BME280;1561;42.666;23.392;2023-03-04T03:18:22;95148.63;;;5.85;100.00
3102;BME280;1561;42.666;23.392;2023-03-04T03:21:17;95152.31;;;5.93;100.00
3102;BME280;1561;42.666;23.392;2023-03-04T03:30:26;95146.19;;;5.57;100.00
3102;BME280;1561;42.666;23.392;2023-03-04T03:36:17;95143.88;;;5.40;100.00
3102;BME280;1561;42.666;23.392;2023-03-04T03:45:31;95141.81;;;4.92;100.00
3102;BME280;1561;42.666;23.392;2023-03-04T03:48:03;95154.66;;;4.89;100.00
3102;BME280;1561;42.666;23.392;2023-03-04T03:53:57;95134.78;;;4.69;100.00
3102;BME280;1561;42.666;23.392;2023-03-04T03:56:24;95138.28;;;4.66;100.00
3102;BME280;1561;42.666;23.392;2023-03-04T04:06:02;95126.91;;;4.31;100.00
3102;BME280;1561;42.666;23.392;2023-03-04T04:08:56;95126.97;;;4.44;100.00
3102;BME280;1561;42.666;23.392;2023-03-04T04:11:24;95123.38;;;4.34;100.00
3102;BME280;1561;42.666;23.392;2023-03-04T04:14:00;95132.41;;;4.38;100.00
3102;BME280;1561;42.666;23.392;2023-03-04T04:16:28;95147.66;;;4.36;100.00
3102;BME280;1561;42.666;23.392;2023-03-04T04:18:56;95109.94;;;4.33;100.00
3102;BME280;1561;42.666;23.392;2023-03-04T04:28:01;95129.44;;;4.45;100.00
3102;BME280;1561;42.666;23.392;2023-03-04T04:30:28;95116.69;;;4.47;100.00
3102;BME280;1561;42.666;23.392;2023-03-04T04:32:59;95130.31;;;5.00;100.00
3102;BME280;1561;42.666;23.392;2023-03-04T04:38:51;95130.31;;;5.00;100.00
3102;BME280;1561;42.666;23.392;2023-03-04T04:41:35;95125.88;;;5.04;100.00
3102;BME280;1561;42.666;23.392;2023-03-04T04:44:05;95113.97;;;4.92;100.00
3102;BME280;1561;42.666;23.392;2023-03-04T04:53:29;95138.03;;;4.85;100.00
3102;BME280;1561;42.666;23.392;2023-03-04T05:05:57;95143.97;;;4.42;100.00
3102;BME280;1561;42.666;23.392;2023-03-04T05:08:35;95138.00;;;4.43;100.00
3102;BME280;1561;42.666;23.392;2023-03-04T05:11:06;95151.66;;;4.54;100.00
3102;BME280;1561;42.666;23.392;2023-03-04T05:13:34;95142.72;;;4.63;100.00
3102;BME280;1561;42.666;23.392;2023-03-04T05:16:36;95159.44;;;4.65;100.00
3102;BME280;1561;42.666;23.392;2023-03-04T05:19:31;95161.22;;;4.63;100.00
3102;BME280;1561;42.666;23.392;2023-03-04T05:25:32;95164.69;;;4.90;100.00
3102;BME280;1561;42.666;23.392;2023-03-04T05:31:56;95165.53;;;5.58;100.00
3102;BME280;1561;42.666;23.392;2023-03-04T05:43:51;95174.53;;;5.49;100.00
3102;BME280;1561;42.666;23.392;2023-03-04T05:46:26;95179.78;;;5.46;100.00
3102;BME280;1561;42.666;23.392;2023-03-04T05:52:33;95177.16;;;5.48;100.00
3102;BME280;1561;42.666;23.392;2023-03-04T05:55:34;95177.53;;;5.82;100.00
3102;BME280;1561;42.666;23.392;2023-03-04T05:58:09;95176.38;;;6.00;100.00
3102;BME280;1561;42.666;23.392;2023-03-04T06:00:41;95181.66;;;5.97;100.00
3102;BME280;1561;42.666;23.392;2023-03-04T06:06:30;95190.88;;;5.98;100.00
3102;BME280;1561;42.666;23.392;2023-03-04T06:19:28;95195.38;;;6.20;100.00
3102;BME280;1561;42.666;23.392;2023-03-04T06:22:05;95189.50;;;6.19;100.00
3102;BME280;1561;42.666;23.392;2023-03-04T06:24:32;95194.19;;;5.72;100.00
3102;BME280;1561;42.666;23.392;2023-03-04T06:27:02;95195.06;;;5.59;100.00
3102;BME280;1561;42.666;23.392;2023-03-04T06:32:51;95194.31;;;5.97;100.00
3102;BME280;1561;42.666;23.392;2023-03-04T06:35:23;95188.81;;;5.91;100.00
3102;BME280;1561;42.666;23.392;2023-03-04T06:37:51;95202.03;;;5.96;100.00
3102;BME280;1561;42.666;23.392;2023-03-04T06:40:20;95192.56;;;5.85;100.00
3102;BME280;1561;42.666;23.392;2023-03-04T06:42:48;95200.50;;;5.79;100.00
3102;BME280;1561;42.666;23.392;2023-03-04T06:48:44;95211.28;;;5.83;100.00
3102;BME280;1561;42.666;23.392;2023-03-04T06:51:13;95213.47;;;6.28;100.00
3102;BME280;1561;42.666;23.392;2023-03-04T07:03:54;95215.03;;;6.04;100.00
3102;BME280;1561;42.666;23.392;2023-03-04T07:06:58;95216.06;;;5.87;100.00
3102;BME280;1561;42.666;23.392;2023-03-04T07:09:25;95205.94;;;5.73;100.00
3102;BME280;1561;42.666;23.392;2023-03-04T07:11:55;95215.66;;;5.81;100.00
3102;BME280;1561;42.666;23.392;2023-03-04T07:17:44;95221.44;;;5.83;100.00
3102;BME280;1561;42.666;23.392;2023-03-04T07:20:11;95217.31;;;5.94;100.00
3102;BME280;1561;42.666;23.392;2023-03-04T07:22:41;95223.75;;;6.12;100.00
3102;BME280;1561;42.666;23.392;2023-03-04T07:28:30;95224.94;;;6.21;100.00
3102;BME280;1561;42.666;23.392;2023-03-04T07:34:44;95220.00;;;6.05;100.00
3102;BME280;1561;42.666;23.392;2023-03-04T07:37:35;95221.41;;;6.09;100.00
3102;BME280;1561;42.666;23.392;2023-03-04T07:40:13;95224.44;;;6.41;100.00
3102;BME280;1561;42.666;23.392;2023-03-04T07:42:48;95218.94;;;6.22;100.00
3102;BME280;1561;42.666;23.392;2023-03-04T07:45:17;95228.06;;;6.24;100.00
3102;BME280;1561;42.666;23.392;2023-03-04T07:54:14;95219.97;;;6.44;100.00
3102;BME280;1561;42.666;23.392;2023-03-04T07:56:43;95218.31;;;6.70;100.00
3102;BME280;1561;42.666;23.392;2023-03-04T07:59:11;95214.16;;;6.81;100.00
3102;BME280;1561;42.666;23.392;2023-03-04T08:12:23;95207.00;;;6.61;100.00
3102;BME280;1561;42.666;23.392;2023-03-04T08:15:16;95215.97;;;7.04;100.00
3102;BME280;1561;42.666;23.392;2023-03-04T08:21:08;95188.44;;;7.11;100.00
3102;BME280;1561;42.666;23.392;2023-03-04T08:23:35;95205.06;;;7.40;100.00
3102;BME280;1561;42.666;23.392;2023-03-04T08:33:22;95211.06;;;7.26;100.00
3102;BME280;1561;42.666;23.392;2023-03-04T08:36:13;95208.66;;;7.84;100.00
3102;BME280;1561;42.666;23.392;2023-03-04T08:38:40;95191.97;;;7.57;100.00
3102;BME280;1561;42.666;23.392;2023-03-04T08:41:09;95198.06;;;7.90;100.00
3102;BME280;1561;42.666;23.392;2023-03-04T08:46:45;95188.50;;;8.17;100.00
3102;BME280;1561;42.666;23.392;2023-03-04T08:49:14;95212.91;;;8.20;100.00
3102;BME280;1561;42.666;23.392;2023-03-04T08:51:45;95005.31;;;6.67;100.00
3102;BME280;1561;42.666;23.392;2023-03-04T09:01:07;95193.44;;;8.77;100.00
3102;BME280;1561;42.666;23.392;2023-03-04T09:03:53;95186.97;;;8.95;100.00
3102;BME280;1561;42.666;23.392;2023-03-04T09:10:24;95185.13;;;9.08;100.00
3102;BME280;1561;42.666;23.392;2023-03-04T09:16:22;95154.19;;;8.79;100.00
3102;BME280;1561;42.666;23.392;2023-03-04T09:18:51;95183.16;;;9.34;100.00
3102;BME280;1561;42.666;23.392;2023-03-04T09:21:22;95174.69;;;9.22;100.00
3102;BME280;1561;42.666;23.392;2023-03-04T09:26:53;95157.44;;;9.26;100.00
3102;BME280;1561;42.666;23.392;2023-03-04T09:30:04;95175.63;;;9.32;100.00
3102;BME280;1561;42.666;23.392;2023-03-04T09:39:18;95164.84;;;8.84;100.00
3102;BME280;1561;42.666;23.392;2023-03-04T09:45:12;95162.31;;;8.84;100.00
3102;BME280;1561;42.666;23.392;2023-03-04T09:47:48;95163.97;;;9.72;100.00
3102;BME280;1561;42.666;23.392;2023-03-04T09:50:21;95163.72;;;9.75;100.00
3102;BME280;1561;42.666;23.392;2023-03-04T09:56:10;95155.47;;;9.83;100.00
3102;BME280;1561;42.666;23.392;2023-03-04T09:58:45;95162.84;;;9.97;100.00
3102;BME280;1561;42.666;23.392;2023-03-04T10:04:47;95141.50;;;9.55;100.00
3102;BME280;1561;42.666;23.392;2023-03-04T10:07:22;95140.38;;;9.91;100.00
3102;BME280;1561;42.666;23.392;2023-03-04T10:09:58;95140.34;;;9.59;100.00
3102;BME280;1561;42.666;23.392;2023-03-04T10:12:38;95122.69;;;10.10;100.00
3102;BME280;1561;42.666;23.392;2023-03-04T10:21:54;95123.16;;;10.04;100.00
3102;BME280;1561;42.666;23.392;2023-03-04T10:24:28;95117.28;;;10.44;100.00
3102;BME280;1561;42.666;23.392;2023-03-04T10:30:56;95118.22;;;10.94;100.00
3102;BME280;1561;42.666;23.392;2023-03-04T10:40:04;95087.47;;;11.05;100.00
3102;BME280;1561;42.666;23.392;2023-03-04T10:42:48;95085.16;;;11.02;100.00
3102;BME280;1561;42.666;23.392;2023-03-04T10:45:20;95090.28;;;10.72;100.00
3102;BME280;1561;42.666;23.392;2023-03-04T10:51:12;95097.47;;;10.57;100.00
3102;BME280;1561;42.666;23.392;2023-03-04T10:53:40;95001.91;;;9.89;100.00
3102;BME280;1561;42.666;23.392;2023-03-04T11:06:11;95057.28;;;11.48;100.00
3102;BME280;1561;42.666;23.392;2023-03-04T11:08:42;95055.56;;;11.58;100.00
3102;BME280;1561;42.666;23.392;2023-03-04T11:11:24;95025.91;;;11.46;100.00
3102;BME280;1561;42.666;23.392;2023-03-04T11:13:56;95045.84;;;12.18;100.00
3102;BME280;1561;42.666;23.392;2023-03-04T11:16:28;95037.84;;;13.13;100.00
3102;BME280;1561;42.666;23.392;2023-03-04T11:19:05;95040.75;;;11.90;100.00
3102;BME280;1561;42.666;23.392;2023-03-04T11:22:01;95039.63;;;12.30;100.00
3102;BME280;1561;42.666;23.392;2023-03-04T11:28:02;95023.38;;;11.93;100.00
3102;BME280;1561;42.666;23.392;2023-03-04T11:30:35;94998.56;;;12.03;98.50
3102;BME280;1561;42.666;23.392;2023-03-04T11:33:41;95018.16;;;11.08;100.00
3102;BME280;1561;42.666;23.392;2023-03-04T11:39:37;95008.38;;;13.00;93.03
3102;BME280;1561;42.666;23.392;2023-03-04T11:45:11;95002.75;;;11.85;97.76
3102;BME280;1561;42.666;23.392;2023-03-04T11:51:07;94995.84;;;11.19;100.00
3102;BME280;1561;42.666;23.392;2023-03-04T11:57:26;94995.47;;;12.00;100.00
3102;BME280;1561;42.666;23.392;2023-03-04T12:00:10;94991.59;;;11.67;100.00
3102;BME280;1561;42.666;23.392;2023-03-04T12:03:21;94913.63;;;11.81;100.00
3102;BME280;1561;42.666;23.392;2023-03-04T12:05:58;94979.06;;;11.83;100.00
3102;BME280;1561;42.666;23.392;2023-03-04T12:15:30;94976.72;;;10.85;100.00
3102;BME280;1561;42.666;23.392;2023-03-04T12:18:16;94975.34;;;10.91;100.00
3102;BME280;1561;42.666;23.392;2023-03-04T12:21:09;94965.91;;;10.72;100.00
3102;BME280;1561;42.666;23.392;2023-03-04T12:30:47;94963.97;;;11.52;100.00
3102;BME280;1561;42.666;23.392;2023-03-04T12:33:30;94964.16;;;10.33;100.00
3102;BME280;1561;42.666;23.392;2023-03-04T12:36:08;94957.53;;;10.21;100.00
3102;BME280;1561;42.666;23.392;2023-03-04T12:48:41;94951.44;;;9.51;100.00
3102;BME280;1561;42.666;23.392;2023-03-04T12:51:24;94861.09;;;9.44;100.00
3102;BME280;1561;42.666;23.392;2023-03-04T12:54:03;94939.47;;;10.13;100.00
3102;BME280;1561;42.666;23.392;2023-03-04T13:00:07;94937.88;;;10.42;100.00
3102;BME280;1561;42.666;23.392;2023-03-04T13:02:53;94935.25;;;10.23;100.00
3102;BME280;1561;42.666;23.392;2023-03-04T13:05:37;94835.81;;;9.92;100.00
3102;BME280;1561;42.666;23.392;2023-03-04T13:18:37;94912.50;;;10.50;100.00
3102;BME280;1561;42.666;23.392;2023-03-04T13:24:47;94906.97;;;10.55;100.00
3102;BME280;1561;42.666;23.392;2023-03-04T13:31:16;94903.38;;;10.18;100.00
3102;BME280;1561;42.666;23.392;2023-03-04T13:37:30;94896.53;;;9.98;100.00
3102;BME280;1561;42.666;23.392;2023-03-04T13:40:29;94911.06;;;9.97;100.00
3102;BME280;1561;42.666;23.392;2023-03-04T13:43:37;94906.78;;;9.77;100.00
3102;BME280;1561;42.666;23.392;2023-03-04T13:46:29;94899.91;;;9.27;100.00
3102;BME280;1561;42.666;23.392;2023-03-04T13:52:37;94897.09;;;9.51;100.00
3102;BME280;1561;42.666;23.392;2023-03-04T14:08:27;94880.50;;;9.86;100.00
3102;BME280;1561;42.666;23.392;2023-03-04T14:10:55;94869.69;;;9.73;100.00
3102;BME280;1561;42.666;23.392;2023-03-04T14:13:23;94877.59;;;9.91;100.00
3102;BME280;1561;42.666;23.392;2023-03-04T14:15:55;94884.72;;;9.97;100.00
3102;BME280;1561;42.666;23.392;2023-03-04T14:18:24;94655.13;;;8.68;100.00
3102;BME280;1561;42.666;23.392;2023-03-04T14:20:55;94879.69;;;10.06;100.00
3102;BME280;1561;42.666;23.392;2023-03-04T14:26:49;94866.88;;;9.97;100.00
3102;BME280;1561;42.666;23.392;2023-03-04T14:29:36;94860.81;;;10.18;100.00
3102;BME280;1561;42.666;23.392;2023-03-04T14:35:45;94863.28;;;10.39;100.00
3102;BME280;1561;42.666;23.392;2023-03-04T14:38:19;94853.91;;;10.09;100.00
3102;BME280;1561;42.666;23.392;2023-03-04T14:41:17;94854.63;;;9.91;100.00
3102;BME280;1561;42.666;23.392;2023-03-04T14:43:51;94841.50;;;9.65;100.00
3102;BME280;1561;42.666;23.392;2023-03-04T14:46:22;94854.06;;;10.08;100.00
3102;BME280;1561;42.666;23.392;2023-03-04T14:55:55;94847.78;;;10.21;100.00
3102;BME280;1561;42.666;23.392;2023-03-04T14:58:25;94803.31;;;10.14;100.00
3102;BME280;1561;42.666;23.392;2023-03-04T15:01:18;94844.75;;;10.46;100.00
3102;BME280;1561;42.666;23.392;2023-03-04T15:03:53;94842.53;;;10.23;100.00
3102;BME280;1561;42.666;23.392;2023-03-04T15:06:23;94836.78;;;10.21;100.00
3102;BME280;1561;42.666;23.392;2023-03-04T15:08:58;94834.59;;;10.16;100.00
3102;BME280;1561;42.666;23.392;2023-03-04T15:11:28;94835.66;;;10.14;100.00
3102;BME280;1561;42.666;23.392;2023-03-04T15:13:58;94824.78;;;10.21;100.00
3102;BME280;1561;42.666;23.392;2023-03-04T15:16:52;94832.94;;;10.06;100.00
3102;BME280;1561;42.666;23.392;2023-03-04T15:19:28;94820.34;;;10.14;100.00
3102;BME280;1561;42.666;23.392;2023-03-04T15:22:06;94825.91;;;9.98;100.00
3102;BME280;1561;42.666;23.392;2023-03-04T15:24:34;94825.78;;;10.30;100.00
3102;BME280;1561;42.666;23.392;2023-03-04T15:27:02;94809.66;;;9.99;100.00
3102;BME280;1561;42.666;23.392;2023-03-04T15:29:34;94815.59;;;10.00;100.00
3102;BME280;1561;42.666;23.392;2023-03-04T15:32:03;94814.53;;;9.72;100.00
3102;BME280;1561;42.666;23.392;2023-03-04T15:34:33;94800.44;;;9.68;100.00
3102;BME280;1561;42.666;23.392;2023-03-04T15:37:06;94815.31;;;9.63;100.00
3102;BME280;1561;42.666;23.392;2023-03-04T15:39:35;94805.38;;;9.40;100.00
3102;BME280;1561;42.666;23.392;2023-03-04T15:42:18;94804.44;;;9.41;100.00
3102;BME280;1561;42.666;23.392;2023-03-04T15:44:53;94684.56;;;8.61;100.00
3102;BME280;1561;42.666;23.392;2023-03-04T15:47:26;94800.88;;;9.43;100.00
3102;BME280;1561;42.666;23.392;2023-03-04T15:53:14;94798.50;;;9.31;100.00
3102;BME280;1561;42.666;23.392;2023-03-04T15:55:44;94789.41;;;9.07;100.00
3102;BME280;1561;42.666;23.392;2023-03-04T15:58:13;94793.53;;;9.08;100.00
3102;BME280;1561;42.666;23.392;2023-03-04T16:00:48;94793.44;;;9.10;100.00
3102;BME280;1561;42.666;23.392;2023-03-04T16:03:20;94783.00;;;9.13;100.00
3102;BME280;1561;42.666;23.392;2023-03-04T16:05:51;94666.25;;;8.47;100.00
3102;BME280;1561;42.666;23.392;2023-03-04T16:08:21;94794.69;;;9.16;100.00
3102;BME280;1561;42.666;23.392;2023-03-04T16:14:12;94796.97;;;8.98;100.00
3102;BME280;1561;42.666;23.392;2023-03-04T16:16:42;94789.06;;;9.22;100.00
3102;BME280;1561;42.666;23.392;2023-03-04T16:19:13;94802.75;;;9.00;100.00
3102;BME280;1561;42.666;23.392;2023-03-04T16:21:55;94806.59;;;8.94;100.00
3102;BME280;1561;42.666;23.392;2023-03-04T16:24:22;94798.09;;;8.84;100.00
3102;BME280;1561;42.666;23.392;2023-03-04T16:26:55;94807.84;;;8.79;100.00
3102;BME280;1561;42.666;23.392;2023-03-04T16:29:23;94803.94;;;8.75;100.00
3102;BME280;1561;42.666;23.392;2023-03-04T16:31:59;94807.09;;;8.68;100.00
3102;BME280;1561;42.666;23.392;2023-03-04T16:38:01;94804.56;;;8.57;100.00
3102;BME280;1561;42.666;23.392;2023-03-04T16:40:30;94811.38;;;8.56;100.00
3102;BME280;1561;42.666;23.392;2023-03-04T16:43:00;94820.22;;;8.52;100.00
3102;BME280;1561;42.666;23.392;2023-03-04T16:45:44;94723.47;;;7.89;100.00
3102;BME280;1561;42.666;23.392;2023-03-04T16:48:15;94746.06;;;8.14;100.00
3102;BME280;1561;42.666;23.392;2023-03-04T16:50:54;94814.25;;;8.63;100.00
3102;BME280;1561;42.666;23.392;2023-03-04T16:53:30;94783.13;;;8.39;100.00
3102;BME280;1561;42.666;23.392;2023-03-04T16:56:03;94801.69;;;8.61;100.00
3102;BME280;1561;42.666;23.392;2023-03-04T16:58:32;94806.16;;;8.69;100.00
3102;BME280;1561;42.666;23.392;2023-03-04T17:01:17;94812.91;;;8.59;100.00
3102;BME280;1561;42.666;23.392;2023-03-04T17:03:55;94807.28;;;8.44;100.00
3102;BME280;1561;42.666;23.392;2023-03-04T17:06:26;94808.47;;;8.40;100.00
3102;BME280;1561;42.666;23.392;2023-03-04T17:08:56;94803.72;;;8.36;100.00
3102;BME280;1561;42.666;23.392;2023-03-04T17:11:26;94693.72;;;7.69;100.00
3102;BME280;1561;42.666;23.392;2023-03-04T17:13:54;94812.50;;;8.32;100.00
3102;BME280;1561;42.666;23.392;2023-03-04T17:16:23;94800.28;;;8.26;100.00
3102;BME280;1561;42.666;23.392;2023-03-04T17:18:58;94815.19;;;8.30;100.00
3102;BME280;1561;42.666;23.392;2023-03-04T17:21:26;94816.09;;;8.40;100.00
3102;BME280;1561;42.666;23.392;2023-03-04T17:23:53;94817.59;;;8.32;100.00
3102;BME280;1561;42.666;23.392;2023-03-04T17:26:53;94812.88;;;8.27;100.00
3102;BME280;1561;42.666;23.392;2023-03-04T17:29:22;94804.44;;;8.16;100.00
3102;BME280;1561;42.666;23.392;2023-03-04T17:35:12;94818.00;;;8.05;100.00
3102;BME280;1561;42.666;23.392;2023-03-04T17:37:40;94820.38;;;8.18;100.00
3102;BME280;1561;42.666;23.392;2023-03-04T17:40:14;94828.66;;;7.99;100.00
3102;BME280;1561;42.666;23.392;2023-03-04T17:42:44;94822.38;;;8.03;100.00
3102;BME280;1561;42.666;23.392;2023-03-04T17:45:29;94824.91;;;8.03;100.00
3102;BME280;1561;42.666;23.392;2023-03-04T17:47:57;94827.94;;;7.97;100.00
3102;BME280;1561;42.666;23.392;2023-03-04T17:50:32;94824.00;;;7.93;100.00
3102;BME280;1561;42.666;23.392;2023-03-04T17:53:01;94834.19;;;7.93;100.00
3102;BME280;1561;42.666;23.392;2023-03-04T17:55:57;94828.28;;;8.04;100.00
3102;BME280;1561;42.666;23.392;2023-03-04T18:02:23;94825.16;;;8.00;100.00
3102;BME280;1561;42.666;23.392;2023-03-04T18:08:14;94825.25;;;8.10;100.00
3102;BME280;1561;42.666;23.392;2023-03-04T18:10:44;94829.47;;;7.89;100.00
3102;BME280;1561;42.666;23.392;2023-03-04T18:17:00;94825.84;;;8.13;100.00
3102;BME280;1561;42.666;23.392;2023-03-04T18:26:19;94820.66;;;8.15;100.00
3102;BME280;1561;42.666;23.392;2023-03-04T18:32:25;94820.97;;;8.32;100.00
3102;BME280;1561;42.666;23.392;2023-03-04T18:35:10;94823.63;;;8.20;100.00
3102;BME280;1561;42.666;23.392;2023-03-04T18:41:02;94820.06;;;8.11;100.00
3102;BME280;1561;42.666;23.392;2023-03-04T18:43:33;94823.97;;;8.15;100.00
3102;BME280;1561;42.666;23.392;2023-03-04T18:46:04;94652.69;;;7.09;100.00
3102;BME280;1561;42.666;23.392;2023-03-04T18:48:36;94822.16;;;8.17;100.00
3102;BME280;1561;42.666;23.392;2023-03-04T18:51:07;94818.22;;;8.02;100.00
3102;BME280;1561;42.666;23.392;2023-03-04T18:53:36;94809.53;;;8.16;100.00
3102;BME280;1561;42.666;23.392;2023-03-04T18:59:30;94822.16;;;8.06;100.00
3102;BME280;1561;42.666;23.392;2023-03-04T19:02:12;94811.16;;;8.17;100.00
3102;BME280;1561;42.666;23.392;2023-03-04T19:14:52;94803.09;;;7.24;100.00
3102;BME280;1561;42.666;23.392;2023-03-04T19:17:23;94829.44;;;7.34;100.00
3102;BME280;1561;42.666;23.392;2023-03-04T19:19:51;94817.78;;;7.20;100.00
3102;BME280;1561;42.666;23.392;2023-03-04T19:22:56;94829.75;;;7.18;100.00
3102;BME280;1561;42.666;23.392;2023-03-04T19:25:31;94830.91;;;7.14;100.00
3102;BME280;1561;42.666;23.392;2023-03-04T19:34:45;94809.81;;;7.25;100.00
3102;BME280;1561;42.666;23.392;2023-03-04T19:37:15;94798.84;;;7.24;100.00
3102;BME280;1561;42.666;23.392;2023-03-04T19:39:42;94830.38;;;7.44;100.00
3102;BME280;1561;42.666;23.392;2023-03-04T19:45:45;94830.03;;;7.48;100.00
3102;BME280;1561;42.666;23.392;2023-03-04T19:48:17;94837.31;;;7.53;100.00
3102;BME280;1561;42.666;23.392;2023-03-04T19:50:51;94835.38;;;7.56;100.00
3102;BME280;1561;42.666;23.392;2023-03-04T19:53:19;94835.81;;;7.39;100.00
3102;BME280;1561;42.666;23.392;2023-03-04T19:56:13;94842.06;;;7.57;100.00
3102;BME280;1561;42.666;23.392;2023-03-04T19:58:53;94839.97;;;7.51;100.00
3102;BME280;1561;42.666;23.392;2023-03-04T20:08:42;94830.59;;;7.52;100.00
3102;BME280;1561;42.666;23.392;2023-03-04T20:11:17;94828.78;;;7.54;100.00
3102;BME280;1561;42.666;23.392;2023-03-04T20:13:46;94832.56;;;7.59;100.00
3102;BME280;1561;42.666;23.392;2023-03-04T20:16:16;94828.19;;;7.61;100.00
3102;BME280;1561;42.666;23.392;2023-03-04T20:22:08;94839.16;;;7.51;100.00
3102;BME280;1561;42.666;23.392;2023-03-04T20:24:39;94831.44;;;7.52;100.00
3102;BME280;1561;42.666;23.392;2023-03-04T20:27:07;94827.97;;;7.53;100.00
3102;BME280;1561;42.666;23.392;2023-03-04T20:29:34;94820.09;;;7.45;100.00
3102;BME280;1561;42.666;23.392;2023-03-04T20:32:04;94836.63;;;7.51;100.00
3102;BME280;1561;42.666;23.392;2023-03-04T20:37:47;94827.84;;;7.77;100.00
3102;BME280;1561;42.666;23.392;2023-03-04T20:40:24;94836.16;;;7.79;100.00
3102;BME280;1561;42.666;23.392;2023-03-04T20:43:05;94839.75;;;7.76;100.00
3102;BME280;1561;42.666;23.392;2023-03-04T20:52:08;94833.84;;;7.98;100.00
3102;BME280;1561;42.666;23.392;2023-03-04T20:54:38;94766.59;;;7.69;100.00
3102;BME280;1561;42.666;23.392;2023-03-04T20:57:12;94832.47;;;7.94;100.00
3102;BME280;1561;42.666;23.392;2023-03-04T21:00:20;94829.31;;;7.90;100.00
3102;BME280;1561;42.666;23.392;2023-03-04T21:02:52;94828.97;;;7.95;100.00
3102;BME280;1561;42.666;23.392;2023-03-04T21:05:37;94836.72;;;8.04;100.00
3102;BME280;1561;42.666;23.392;2023-03-04T21:08:06;94824.69;;;8.06;100.00
3102;BME280;1561;42.666;23.392;2023-03-04T21:14:18;94826.63;;;8.14;100.00
3102;BME280;1561;42.666;23.392;2023-03-04T21:20:41;94814.97;;;8.11;100.00
3102;BME280;1561;42.666;23.392;2023-03-04T21:23:09;94813.34;;;8.10;100.00
3102;BME280;1561;42.666;23.392;2023-03-04T21:25:57;94815.94;;;7.99;100.00
3102;BME280;1561;42.666;23.392;2023-03-04T21:31:49;94783.59;;;7.79;100.00
3102;BME280;1561;42.666;23.392;2023-03-04T21:34:20;94808.63;;;7.95;100.00
3102;BME280;1561;42.666;23.392;2023-03-04T21:36:49;94811.66;;;7.89;100.00
3102;BME280;1561;42.666;23.392;2023-03-04T21:39:25;94803.22;;;7.99;100.00
3102;BME280;1561;42.666;23.392;2023-03-04T22:01:34;94794.19;;;7.95;100.00
3102;BME280;1561;42.666;23.392;2023-03-04T22:04:05;94792.13;;;7.89;100.00
3102;BME280;1561;42.666;23.392;2023-03-04T22:06:34;94766.94;;;7.75;100.00
3102;BME280;1561;42.666;23.392;2023-03-04T22:09:06;94789.56;;;7.89;100.00
3102;BME280;1561;42.666;23.392;2023-03-04T22:11:37;94795.69;;;7.87;100.00
3102;BME280;1561;42.666;23.392;2023-03-04T22:14:05;94787.16;;;7.77;100.00